Waddington, NY

8:53 AM EDT on August 28, 2014 (GMT -0400)
Adirondack Regional | Change Station
CLOSE
Current Station
Airport
Location: Saranac Lake,
Elevation: 1660 ft
Nearby Weather Stations

Elev 1660 ft 44.39 °N, 74.21 °W | Updated 10 minutes ago

Overcast
Overcast
58 °F
Feels Like 58 °F
N
5
Wind Variable Wind from Variable

Today
High -- | Low -- °F
--% Chance of Precip.
Yesterday
High -- | Low -- °F
Precip. -- in
6:18 AM 7:44 PM
Waxing Crescent, 8% visible
Pressure 29.96 in
Visibility 10.0 miles
Clouds Few 2600 ft
Mostly Cloudy 3900 ft
Overcast 6500 ft
Dew Point 51 °F
Humidity 78%
Rainfall 0.00 in
Snow Depth Not available.
UV 1 out of 12
Pollen 8.20 out of 12
Air Quality Not available.
Flu Activity Not available.
SPECI KSLK 281243Z AUTO VRB04KT 10SM FEW026 BKN039 OVC065 14/11 A2996 RMK AO2 T01440106

More Conditions Fewer Conditions

Pressure 29.96 in
Visibility 10.0 miles
Clouds Few 2600 ft
Mostly Cloudy 3900 ft
Overcast 6500 ft
Dew Point 51 °F
Humidity 78%
Rainfall 0.00 in
Snow Depth Not available.
UV 1 out of 12
Pollen 8.20 out of 12
Air Quality Not available.
Flu Activity Not available.
SPECI KSLK 281243Z AUTO VRB04KT 10SM FEW026 BKN039 OVC065 14/11 A2996 RMK AO2 T01440106

More Conditions Fewer Conditions

10-Day Weather Forecast

Almanac

Astronomy

Aug. 28, 2014 Rise Set
Actual Time 6:18 AM EDT 7:44 PM EDT
Civil Twilight 5:47 AM EDT 8:15 PM EDT
Nautical Twilight 5:10 AM EDT 8:52 PM EDT
Astronomical Twilight 4:31 AM EDT 9:31 PM EDT
Moon 9:17 AM EDT 8:57 PM EDT
Length of Visible Light 14h 27m
Length of Day
13h 26m
Tomorrow will be 2m 58s shorter.
Waxing Crescent, 8% of the Moon is Illuminated
Today
Waxing Crescent
Sep 2
First Quarter
Sep 8
Full
Sep 15
Last Quarter
Sep 24
New

Today's Extremes

State Highs State Lows

Community

WunderPhotos

Upload Photos

1,747,945 photos uploaded!

Nearby

Air Quality

  Air Quality AQ Index Pollutant
Thursday Good
OZONE
Thursday Good
PM2.5

Snow Depth

Station Depth Elevation
No new snow has been reported.

Earthquake Activity

City Distance Mag. Time & Date
No recent earthquake activity has been reported nearby.
Minimum magnitude displayed is 2.5.

Coastal Water Temperatures

Place Temperature
Ogdensburg, NY 64.9 °F
Alexandria Bay, NY 70.0 °F

Nearby Weather Stations